createdAt,value
2023-05-13T00:02:04.451Z,62.00
2023-05-13T00:04:37.156Z,61.71
2023-05-13T00:07:09.907Z,61.83
2023-05-13T00:09:42.614Z,62.04
2023-05-13T00:12:15.483Z,61.73
2023-05-13T00:14:48.179Z,61.93
2023-05-13T00:17:22.341Z,62.06
2023-05-13T00:19:55.004Z,62.14
2023-05-13T00:22:27.784Z,62.07
2023-05-13T00:25:00.895Z,61.76
2023-05-13T00:27:33.693Z,62.27
2023-05-13T00:30:08.254Z,62.14
2023-05-13T00:32:42.528Z,61.64
2023-05-13T00:35:15.306Z,61.94
2023-05-13T00:37:48.033Z,62.14
2023-05-13T00:40:22.855Z,61.91
2023-05-13T00:42:56.238Z,62.08
2023-05-13T00:45:29.093Z,61.83
2023-05-13T00:48:03.276Z,62.03
2023-05-13T00:50:36.382Z,62.08
2023-05-13T00:53:08.965Z,62.20
2023-05-13T00:55:43.029Z,62.06
2023-05-13T00:58:17.983Z,62.37
2023-05-13T01:01:02.477Z,62.27
2023-05-13T01:03:50.212Z,62.22
2023-05-13T01:06:32.712Z,62.06
2023-05-13T01:09:16.601Z,62.36
2023-05-13T01:11:53.865Z,62.46
2023-05-13T01:14:34.008Z,62.37
2023-05-13T01:17:12.259Z,62.61
2023-05-13T01:19:50.608Z,62.56
2023-05-13T01:22:24.612Z,62.39
2023-05-13T01:24:57.365Z,62.55
2023-05-13T01:27:30.560Z,62.32
2023-05-13T01:30:04.046Z,62.19
2023-05-13T01:32:39.536Z,62.12
2023-05-13T01:35:13.309Z,61.88
2023-05-13T01:37:52.549Z,61.86
2023-05-13T01:43:05.276Z,62.44
2023-05-13T01:45:38.126Z,62.44
2023-05-13T01:48:10.642Z,62.27
2023-05-13T01:50:48.541Z,62.06
2023-05-13T01:53:22.427Z,62.00
2023-05-13T01:55:58.304Z,62.01
2023-05-13T01:58:31.750Z,62.07
2023-05-13T02:01:04.610Z,61.72
2023-05-13T02:03:38.353Z,62.27
2023-05-13T02:06:11.250Z,62.25
2023-05-13T02:08:47.789Z,62.17
2023-05-13T02:11:20.498Z,62.20
2023-05-13T02:13:53.147Z,62.42
2023-05-13T02:16:25.807Z,62.35
2023-05-13T02:18:58.746Z,62.51
2023-05-13T02:21:34.287Z,62.38
2023-05-13T02:24:08.704Z,62.48
2023-05-13T02:26:41.917Z,62.56
2023-05-13T02:29:14.995Z,62.27
2023-05-13T02:31:47.991Z,62.85
2023-05-13T02:34:20.620Z,62.73
2023-05-13T02:36:53.440Z,62.84
2023-05-13T02:39:27.956Z,62.91
2023-05-13T02:42:03.196Z,62.87
2023-05-13T02:44:38.248Z,62.46
2023-05-13T02:47:11.277Z,63.03
2023-05-13T02:49:44.099Z,63.20
2023-05-13T02:52:17.006Z,63.21
2023-05-13T02:54:51.178Z,63.01
2023-05-13T02:57:23.890Z,62.82
2023-05-13T02:59:56.607Z,63.49
2023-05-13T03:02:29.481Z,63.27
2023-05-13T03:05:02.056Z,63.20
2023-05-13T03:07:35.303Z,63.41
2023-05-13T03:10:10.471Z,63.52
2023-05-13T03:12:43.784Z,63.45
2023-05-13T03:15:17.748Z,63.55
2023-05-13T03:17:50.778Z,64.18
2023-05-13T03:20:25.023Z,64.09
2023-05-13T03:22:57.841Z,63.68
2023-05-13T03:25:31.885Z,63.81
2023-05-13T03:28:05.204Z,64.42
2023-05-13T03:30:43.543Z,64.40
2023-05-13T03:33:20.932Z,64.31
2023-05-13T03:35:53.706Z,64.32
2023-05-13T03:38:31.604Z,64.29
2023-05-13T03:41:05.907Z,64.29
2023-05-13T03:43:39.260Z,64.33
2023-05-13T03:46:15.670Z,64.35
2023-05-13T03:48:48.623Z,64.46
2023-05-13T03:51:21.349Z,64.58
2023-05-13T03:53:54.648Z,64.72
2023-05-13T03:56:28.805Z,64.26
2023-05-13T03:59:01.727Z,63.85
2023-05-13T04:01:34.310Z,64.37
2023-05-13T04:04:07.070Z,64.23
2023-05-13T04:06:39.838Z,64.46
2023-05-13T04:09:12.674Z,64.25
2023-05-13T04:11:46.757Z,64.45
2023-05-13T04:14:20.971Z,64.37
2023-05-13T04:16:53.734Z,64.33
2023-05-13T04:19:26.887Z,64.48
2023-05-13T04:21:59.610Z,64.44
2023-05-13T04:24:33.462Z,64.29
2023-05-13T04:27:07.693Z,64.15
2023-05-13T04:29:40.425Z,64.45
2023-05-13T04:32:15.971Z,64.67
2023-05-13T04:34:49.584Z,64.46
2023-05-13T04:37:22.333Z,64.42
2023-05-13T04:39:56.986Z,64.80
2023-05-13T04:42:31.749Z,64.80
2023-05-13T04:45:05.792Z,65.11
2023-05-13T04:47:38.550Z,64.62
2023-05-13T04:50:12.100Z,64.91
2023-05-13T04:52:47.191Z,65.04
2023-05-13T04:55:21.130Z,65.02
2023-05-13T04:57:56.274Z,65.10
2023-05-13T05:00:29.527Z,65.35
2023-05-13T05:03:02.194Z,65.42
2023-05-13T05:05:34.992Z,65.26
2023-05-13T05:08:08.445Z,65.04
2023-05-13T05:10:42.688Z,65.25
2023-05-13T05:13:18.439Z,65.33
2023-05-13T05:15:51.210Z,65.25
2023-05-13T05:18:24.083Z,65.25
2023-05-13T05:20:57.359Z,65.15
2023-05-13T05:23:30.113Z,65.18
2023-05-13T05:26:11.078Z,65.33
2023-05-13T05:28:47.296Z,65.40
2023-05-13T05:31:21.926Z,65.35
2023-05-13T05:33:55.112Z,64.89
2023-05-13T05:36:28.016Z,65.49
2023-05-13T05:39:00.916Z,65.30
2023-05-13T05:41:38.609Z,65.27
2023-05-13T05:44:14.331Z,65.34
2023-05-13T05:46:47.739Z,65.25
2023-05-13T05:49:20.851Z,64.90
2023-05-13T05:51:54.908Z,64.89
2023-05-13T05:54:28.293Z,65.29
2023-05-13T05:57:01.218Z,65.22
2023-05-13T05:59:35.419Z,65.44
2023-05-13T06:02:08.508Z,65.02
2023-05-13T06:04:42.039Z,65.49
2023-05-13T06:07:15.058Z,65.18
2023-05-13T06:09:47.994Z,65.09
2023-05-13T06:12:20.977Z,65.02
2023-05-13T06:14:54.848Z,65.48
2023-05-13T06:17:27.645Z,65.23
2023-05-13T06:20:00.306Z,65.16
2023-05-13T06:22:33.028Z,65.35
2023-05-13T06:25:06.761Z,65.08
2023-05-13T06:27:39.570Z,65.00
2023-05-13T06:30:14.249Z,64.90
2023-05-13T06:33:00.027Z,65.00
2023-05-13T06:35:34.100Z,65.03
2023-05-13T06:38:10.207Z,64.67
2023-05-13T06:40:43.284Z,65.14
2023-05-13T06:43:16.625Z,64.59
2023-05-13T06:45:54.811Z,64.16
2023-05-13T06:48:30.364Z,63.62
2023-05-13T06:51:06.297Z,64.05
2023-05-13T06:53:38.975Z,63.94
2023-05-13T06:56:11.748Z,63.69
2023-05-13T06:58:44.472Z,63.46
2023-05-13T07:01:18.626Z,63.64
2023-05-13T07:03:51.592Z,63.52
2023-05-13T07:06:24.444Z,63.94
2023-05-13T07:08:57.434Z,63.40
2023-05-13T07:11:30.279Z,62.82
2023-05-13T07:14:03.296Z,62.57
2023-05-13T07:16:37.538Z,63.49
2023-05-13T07:19:10.634Z,62.79
2023-05-13T07:21:43.541Z,63.25
2023-05-13T07:24:17.032Z,63.23
2023-05-13T07:26:50.605Z,63.05
2023-05-13T07:29:24.134Z,62.57
2023-05-13T07:31:59.613Z,63.14
2023-05-13T07:34:32.381Z,63.12
2023-05-13T07:37:05.777Z,64.31
2023-05-13T07:39:38.638Z,62.83
2023-05-13T07:42:11.364Z,63.74
2023-05-13T07:44:44.188Z,62.91
2023-05-13T07:47:18.773Z,63.37
2023-05-13T07:49:51.577Z,63.90
2023-05-13T07:52:24.608Z,62.66
2023-05-13T07:54:57.461Z,63.43
2023-05-13T07:57:30.399Z,63.24
2023-05-13T08:00:03.407Z,63.48
2023-05-13T08:02:46.948Z,63.28
2023-05-13T08:05:20.067Z,62.90
2023-05-13T08:07:52.959Z,63.06
2023-05-13T08:10:25.666Z,62.09
2023-05-13T08:12:58.592Z,61.73
2023-05-13T08:15:31.588Z,62.09
2023-05-13T08:18:05.841Z,61.94
2023-05-13T08:20:39.145Z,61.58
2023-05-13T08:23:11.766Z,62.11
2023-05-13T08:25:44.584Z,62.59
2023-05-13T08:28:17.260Z,62.47
2023-05-13T08:30:50.243Z,62.73
2023-05-13T08:33:24.272Z,63.26
2023-05-13T08:35:57.481Z,61.41
2023-05-13T08:38:30.232Z,61.69
2023-05-13T08:41:05.397Z,61.56
2023-05-13T08:43:39.641Z,61.13
2023-05-13T08:46:13.378Z,61.25
2023-05-13T08:48:49.003Z,60.77
2023-05-13T08:51:22.160Z,61.30
2023-05-13T08:53:56.338Z,61.24
2023-05-13T08:56:29.862Z,61.12
2023-05-13T08:59:02.773Z,61.04
2023-05-13T09:01:35.770Z,60.74
2023-05-13T09:04:11.574Z,60.79
2023-05-13T09:06:44.940Z,60.77
2023-05-13T09:09:18.039Z,60.44
2023-05-13T09:11:53.546Z,60.54
2023-05-13T09:14:35.363Z,60.49
2023-05-13T09:17:08.894Z,59.70
2023-05-13T09:19:43.292Z,60.91
2023-05-13T09:22:18.721Z,60.48
2023-05-13T09:24:55.663Z,60.03
2023-05-13T09:27:38.221Z,59.22
2023-05-13T09:30:12.153Z,59.38
2023-05-13T09:32:45.291Z,59.28
2023-05-13T09:35:19.603Z,59.56
2023-05-13T09:37:52.775Z,59.49
2023-05-13T09:40:25.910Z,60.06
2023-05-13T09:43:00.203Z,59.16
2023-05-13T09:45:33.805Z,59.08
2023-05-13T09:48:07.355Z,58.98
2023-05-13T09:50:49.934Z,58.99
2023-05-13T09:53:22.934Z,59.08
2023-05-13T09:55:57.515Z,58.64
2023-05-13T09:58:31.158Z,58.12
2023-05-13T10:01:04.982Z,58.58
2023-05-13T10:03:38.528Z,58.19
2023-05-13T10:06:12.926Z,58.00
2023-05-13T10:08:50.858Z,58.88
2023-05-13T10:11:25.801Z,58.29
2023-05-13T10:14:03.016Z,57.97
2023-05-13T10:16:36.249Z,57.66
2023-05-13T10:19:09.712Z,58.35
2023-05-13T10:21:44.701Z,57.23
2023-05-13T10:24:18.030Z,57.78
2023-05-13T10:26:54.439Z,57.34
2023-05-13T10:29:29.186Z,57.36
2023-05-13T10:32:03.198Z,58.02
2023-05-13T10:34:39.049Z,57.56
2023-05-13T10:37:35.842Z,57.13
2023-05-13T10:40:31.814Z,56.38
2023-05-13T10:43:14.709Z,57.19
2023-05-13T10:45:49.387Z,55.85
2023-05-13T10:48:24.153Z,55.95
2023-05-13T10:51:02.245Z,56.22
2023-05-13T10:53:48.937Z,56.62
2023-05-13T10:56:23.184Z,56.17
2023-05-13T10:59:00.471Z,57.11
2023-05-13T11:01:36.567Z,56.67
2023-05-13T11:04:14.457Z,55.76
2023-05-13T11:06:49.686Z,56.37
2023-05-13T11:09:32.469Z,55.54
2023-05-13T11:12:06.384Z,55.87
2023-05-13T11:14:44.443Z,56.04
2023-05-13T11:17:20.623Z,54.98
2023-05-13T11:19:53.572Z,55.29
2023-05-13T11:22:34.390Z,56.66
2023-05-13T11:25:10.554Z,55.43
2023-05-13T11:27:44.458Z,55.86
2023-05-13T11:30:23.997Z,54.82
2023-05-13T11:32:58.580Z,55.49
2023-05-13T11:35:33.587Z,55.45
2023-05-13T11:38:08.892Z,55.91
2023-05-13T11:40:44.048Z,54.72
2023-05-13T11:43:20.806Z,55.04
2023-05-13T11:45:55.685Z,54.62
2023-05-13T11:48:30.188Z,54.98
2023-05-13T11:51:03.147Z,53.87
2023-05-13T11:53:36.102Z,52.75
2023-05-13T11:56:13.636Z,54.57
2023-05-13T11:58:46.756Z,54.12
2023-05-13T12:01:19.677Z,54.39
2023-05-13T12:04:01.833Z,54.01
2023-05-13T12:06:35.161Z,55.03
2023-05-13T12:09:09.695Z,53.93
2023-05-13T12:11:44.575Z,54.71
2023-05-13T12:14:18.398Z,54.71
2023-05-13T12:16:52.396Z,55.60
2023-05-13T12:19:25.350Z,55.05
2023-05-13T12:22:00.503Z,53.63
2023-05-13T12:24:34.975Z,52.93
2023-05-13T12:27:11.574Z,53.50
2023-05-13T12:29:44.963Z,52.86
2023-05-13T12:32:17.959Z,54.26
2023-05-13T12:34:51.889Z,53.97
2023-05-13T12:37:26.071Z,52.66
2023-05-13T12:40:11.690Z,51.60
2023-05-13T12:42:48.060Z,53.81
2023-05-13T12:45:21.532Z,52.65
2023-05-13T12:47:56.038Z,53.87
2023-05-13T12:50:29.079Z,50.89
2023-05-13T12:53:01.948Z,53.10
2023-05-13T12:55:40.043Z,52.48
2023-05-13T12:58:19.946Z,53.17
2023-05-13T13:00:56.762Z,51.01
2023-05-13T13:03:44.038Z,52.28
2023-05-13T13:06:22.802Z,52.14
2023-05-13T13:09:09.974Z,52.76
2023-05-13T13:11:55.775Z,52.00
2023-05-13T13:14:30.043Z,52.55
2023-05-13T13:17:05.879Z,52.99
2023-05-13T13:19:38.941Z,52.88
2023-05-13T13:22:14.788Z,49.83
2023-05-13T13:24:47.540Z,53.21
2023-05-13T13:27:20.511Z,52.39
2023-05-13T13:29:57.623Z,51.30
2023-05-13T13:32:30.532Z,49.79
2023-05-13T13:35:05.664Z,51.60
2023-05-13T13:37:40.152Z,51.30
2023-05-13T13:40:16.022Z,51.30
2023-05-13T13:42:49.050Z,52.33
2023-05-13T13:45:24.997Z,49.66
2023-05-13T13:47:59.760Z,52.31
2023-05-13T13:50:42.517Z,52.84
2023-05-13T13:53:23.674Z,48.56
2023-05-13T13:55:56.801Z,50.97
2023-05-13T13:58:32.412Z,52.50
2023-05-13T14:01:09.708Z,49.57
2023-05-13T14:03:44.120Z,49.00
2023-05-13T14:06:21.049Z,51.56
2023-05-13T14:08:59.837Z,51.75
2023-05-13T14:11:35.447Z,51.14
2023-05-13T14:14:09.302Z,50.58
2023-05-13T14:16:46.721Z,51.10
2023-05-13T14:19:22.370Z,47.88
2023-05-13T14:21:55.357Z,50.45
2023-05-13T14:24:35.397Z,48.96
2023-05-13T14:27:10.781Z,50.10
2023-05-13T14:29:44.104Z,48.46
2023-05-13T14:32:21.834Z,50.60
2023-05-13T14:34:54.961Z,48.45
2023-05-13T14:37:27.802Z,48.88
2023-05-13T14:40:00.798Z,47.46
2023-05-13T14:42:33.786Z,48.62
2023-05-13T14:45:07.684Z,47.94
2023-05-13T14:47:44.531Z,47.99
2023-05-13T14:50:17.500Z,49.18
2023-05-13T14:52:53.263Z,45.39
2023-05-13T14:55:26.469Z,47.40
2023-05-13T14:57:59.418Z,48.52
2023-05-13T15:00:32.960Z,47.43
2023-05-13T15:03:07.385Z,47.81
2023-05-13T15:05:43.232Z,47.17
2023-05-13T15:08:17.348Z,46.15
2023-05-13T15:10:51.741Z,46.15
2023-05-13T15:13:27.222Z,47.08
2023-05-13T15:16:00.304Z,47.40
2023-05-13T15:18:34.817Z,45.50
2023-05-13T15:21:08.031Z,46.73
2023-05-13T15:23:40.865Z,46.70
2023-05-13T15:26:14.212Z,46.59
2023-05-13T15:28:50.071Z,46.24
2023-05-13T15:31:23.378Z,47.01
2023-05-13T15:33:57.734Z,45.32
2023-05-13T15:36:31.109Z,45.50
2023-05-13T15:39:04.604Z,45.59
2023-05-13T15:41:37.824Z,45.38
2023-05-13T15:44:10.787Z,45.78
2023-05-13T15:46:43.943Z,45.30
2023-05-13T15:49:21.960Z,44.73
2023-05-13T15:52:04.852Z,44.77
2023-05-13T15:54:50.111Z,44.96
2023-05-13T15:57:23.468Z,43.97
2023-05-13T15:59:56.348Z,44.25
2023-05-13T16:02:36.162Z,44.61
2023-05-13T16:05:21.183Z,44.70
2023-05-13T16:07:59.783Z,44.97
2023-05-13T16:10:33.987Z,44.79
2023-05-13T16:13:11.798Z,44.63
2023-05-13T16:15:55.699Z,44.67
2023-05-13T16:18:33.916Z,44.95
2023-05-13T16:21:09.450Z,44.51
2023-05-13T16:23:45.628Z,44.72
2023-05-13T16:26:19.442Z,43.95
2023-05-13T16:28:59.899Z,45.14
2023-05-13T16:31:36.310Z,44.69
2023-05-13T16:34:10.579Z,44.89
2023-05-13T16:36:44.959Z,44.47
2023-05-13T16:39:21.007Z,44.89
2023-05-13T16:41:53.943Z,45.21
2023-05-13T16:44:26.814Z,45.44
2023-05-13T16:46:59.660Z,45.36
2023-05-13T16:49:32.793Z,45.48
2023-05-13T16:52:08.533Z,45.68
2023-05-13T16:54:42.117Z,46.06
2023-05-13T16:57:18.899Z,46.53
2023-05-13T16:59:55.019Z,46.05
2023-05-13T17:02:32.796Z,46.49
2023-05-13T17:05:09.231Z,46.45
2023-05-13T17:07:48.378Z,45.89
2023-05-13T17:10:24.238Z,45.70
2023-05-13T17:13:00.372Z,46.47
2023-05-13T17:15:33.463Z,46.65
2023-05-13T17:18:07.013Z,46.40
2023-05-13T17:20:41.377Z,46.46
2023-05-13T17:23:18.448Z,46.02
2023-05-13T17:25:53.351Z,46.55
2023-05-13T17:28:28.929Z,46.01
2023-05-13T17:31:02.576Z,46.78
2023-05-13T17:33:37.827Z,46.39
2023-05-13T17:36:11.136Z,46.71
2023-05-13T17:38:46.026Z,47.21
2023-05-13T17:41:26.723Z,47.66
2023-05-13T17:43:59.820Z,47.52
2023-05-13T17:46:34.067Z,47.14
2023-05-13T17:49:14.786Z,47.87
2023-05-13T17:51:48.543Z,47.84
2023-05-13T17:54:25.995Z,47.53
2023-05-13T17:56:59.438Z,47.68
2023-05-13T17:59:37.372Z,48.05
2023-05-13T18:02:13.230Z,48.02
2023-05-13T18:04:50.650Z,48.15
2023-05-13T18:07:23.442Z,48.26
2023-05-13T18:09:57.371Z,48.42
2023-05-13T18:12:30.478Z,48.79
2023-05-13T18:15:03.630Z,48.56
2023-05-13T18:17:39.303Z,48.73
2023-05-13T18:20:15.986Z,48.63
2023-05-13T18:22:49.090Z,48.79
2023-05-13T18:25:28.242Z,48.98
2023-05-13T18:28:17.931Z,48.84
2023-05-13T18:31:18.166Z,49.04
2023-05-13T18:33:59.549Z,49.14
2023-05-13T18:36:40.641Z,48.94
2023-05-13T18:39:25.017Z,49.52
2023-05-13T18:42:53.447Z,49.92
2023-05-13T18:45:36.983Z,49.68
2023-05-13T18:48:36.400Z,50.01
2023-05-13T18:51:12.593Z,50.45
2023-05-13T18:53:54.211Z,50.04
2023-05-13T18:56:53.645Z,50.41
2023-05-13T19:02:47.481Z,50.35
2023-05-13T19:05:52.227Z,50.31
2023-05-13T19:08:50.109Z,50.56
2023-05-13T19:11:23.149Z,50.91
2023-05-13T19:13:56.649Z,51.02
2023-05-13T19:16:54.377Z,51.07
2023-05-13T19:24:14.056Z,51.14
2023-05-13T19:34:47.186Z,51.31
2023-05-13T19:45:23.226Z,51.92
2023-05-13T20:06:59.290Z,53.15
2023-05-13T20:09:32.366Z,53.26
2023-05-13T20:12:10.492Z,53.64
2023-05-13T20:15:26.920Z,53.42
2023-05-13T20:18:36.014Z,53.72
2023-05-13T20:21:16.168Z,54.02
2023-05-13T20:24:02.515Z,54.09
2023-05-13T20:27:11.994Z,54.40
2023-05-13T20:29:52.252Z,54.35
2023-05-13T20:33:03.008Z,54.42
2023-05-13T20:35:36.891Z,54.56
2023-05-13T20:38:09.683Z,54.35
2023-05-13T20:40:43.858Z,54.89
2023-05-13T20:43:20.425Z,54.92
2023-05-13T20:45:53.748Z,54.97
2023-05-13T20:48:26.683Z,55.21
2023-05-13T20:51:00.412Z,55.06
2023-05-13T20:53:33.795Z,55.34
2023-05-13T20:56:09.956Z,55.23
2023-05-13T20:58:43.144Z,55.24
2023-05-13T21:01:17.949Z,55.58
2023-05-13T21:03:50.787Z,55.50
2023-05-13T21:06:23.946Z,55.63
2023-05-13T21:08:56.894Z,55.78
2023-05-13T21:11:31.300Z,55.98
2023-05-13T21:14:04.372Z,55.71
2023-05-13T21:16:37.391Z,56.09
2023-05-13T21:19:18.669Z,56.12
2023-05-13T21:21:52.277Z,56.02
2023-05-13T21:24:25.314Z,55.79
2023-05-13T21:26:59.225Z,55.85
2023-05-13T21:29:32.092Z,56.31
2023-05-13T21:32:05.455Z,56.63
2023-05-13T21:34:38.529Z,56.78
2023-05-13T21:37:11.212Z,56.88
2023-05-13T21:39:44.038Z,57.15
2023-05-13T21:42:18.114Z,56.98
2023-05-13T21:44:51.205Z,56.92
2023-05-13T21:47:24.528Z,56.98
2023-05-13T21:49:57.612Z,56.72
2023-05-13T21:52:30.594Z,56.96
2023-05-13T21:55:03.652Z,57.00
2023-05-13T21:57:37.863Z,57.33
2023-05-13T22:00:15.193Z,57.33
2023-05-13T22:02:51.816Z,57.36
2023-05-13T22:05:24.804Z,56.81
2023-05-13T22:07:57.568Z,57.26
2023-05-13T22:10:30.995Z,57.63
2023-05-13T22:13:05.398Z,57.49
2023-05-13T22:15:38.355Z,57.84
2023-05-13T22:18:11.194Z,57.83
2023-05-13T22:20:44.085Z,57.85
2023-05-13T22:23:16.856Z,57.76
2023-05-13T22:25:49.706Z,58.55
2023-05-13T22:28:23.933Z,58.06
2023-05-13T22:30:57.047Z,58.44
2023-05-13T22:33:29.982Z,58.40
2023-05-13T22:36:02.614Z,58.50
2023-05-13T22:38:35.434Z,58.42
2023-05-13T22:41:09.340Z,58.30
2023-05-13T22:43:43.669Z,58.83
2023-05-13T22:46:16.566Z,58.96
2023-05-13T22:48:49.256Z,58.96
2023-05-13T22:51:22.076Z,58.62
2023-05-13T22:53:54.838Z,58.61
2023-05-13T22:56:27.656Z,58.66
2023-05-13T22:59:02.027Z,58.74
2023-05-13T23:01:34.974Z,59.26
2023-05-13T23:04:07.982Z,59.23
2023-05-13T23:06:40.708Z,59.26
2023-05-13T23:09:13.667Z,58.93
2023-05-13T23:11:46.353Z,59.40
2023-05-13T23:14:20.766Z,59.25
2023-05-13T23:16:53.506Z,59.23
2023-05-13T23:19:26.721Z,59.44
2023-05-13T23:21:59.593Z,59.51
2023-05-13T23:24:32.507Z,59.50
2023-05-13T23:27:05.210Z,59.39
2023-05-13T23:29:39.320Z,59.42
2023-05-13T23:32:12.239Z,59.82
2023-05-13T23:34:44.897Z,59.72
2023-05-13T23:37:17.969Z,59.72
2023-05-13T23:39:50.904Z,59.42
2023-05-13T23:42:23.748Z,59.55
2023-05-13T23:44:58.037Z,59.94
2023-05-13T23:47:30.847Z,59.80
2023-05-13T23:50:04.014Z,59.75
2023-05-13T23:52:36.729Z,59.65
2023-05-13T23:55:09.572Z,59.92
2023-05-13T23:57:42.214Z,59.80
